Robey, South Dakota
Current Conditions -  °F | °C
As of 10:55 PM on Monday 20 Oct 2014 (Local Time) from K9V9 Reporting Station
Clear Clear  
Wind Chill: 54°   Ceiling: Unl
Heat Index: 54°   Visibility: 10mi
Dew Point: 34°   Wind: 10mph
Humidity: 48%   Direction: 130°SE
Pressure: 29.98"   Gusts: NA
Location:  43.8055°N, 98.6832°W
Report Text: K9V9 210355Z AUTO 13009KT 10SM CLR 12/01 A2998 RMK AO2 T01200012
Loading
Personal Weather Stations






























Interactive Weather Map
Tropical Storm Tracking
New forecast layout! Learn more

10-Day Weather Forecast

Advertisements
Track Severe Weather on mobile